Terminal Aerodrome Forecast
Issued by NWS New Orleans/Baton Rouge, LA

Home | Current Version | Previous Version | Text Only | Print | Product List | Glossary On
Versions: 1 2 3 4 5 6 7 8 9 10 11 12 13 14 15 16
000
FTUS44 KLIX 290538
TAFBTR
TAF
KBTR 290538Z 2906/3006 14005KT P6SM SKC
     FM291100 VRB03KT 3SM BR SCT250
     FM291400 14004KT P6SM SCT250
     FM291800 15005KT P6SM SCT030 SCT250 PROB30 2918/2923 VRB15KT
      2SM TSRA BKN030CB
     FM292300 12003KT P6SM SCT100=

USA.gov is the U.S. government's official web portal to all federal, state and local government web resources and services.